Burlington, WA (98233)

2:19 PM PDT on October 25, 2014 (GMT -0700)
Bow | Change Station
CLOSE
Current Station
Personal Weather Station
Location: Bow, WA
Elevation: 85 ft
Nearby Weather Stations
Active Advisory: Wind Advisory

Elev 85 ft 48.54 °N, 122.37 °W | Updated 40 seconds ago

Mostly Cloudy
Mostly Cloudy
58.3 °F
Feels Like 58.3 °F
N
4.3
Wind Variable Wind from NE
Gusts 10.0 mph

Today
High -- | Low -- °F
--% Chance of Precip.
Yesterday
High -- | Low -- °F
Precip. -- in
7:44 AM 6:01 PM
Waxing Crescent, 4% visible
Pressure 29.37 in
Visibility 10.0 miles
Clouds Few 4000 ft
Mostly Cloudy 7500 ft
Overcast 9000 ft
Dew Point 51 °F
Humidity 78%
Rainfall 0.09 in
Snow Depth Not available.
UV 1 out of 12
Pollen .40 out of 12
PM2.5 Good
Flu Activity Sporadic
METAR KNUW 252056Z 25004KT 10SM -RA FEW040 BKN075 OVC090 16/12 A2935 RMK AO2 RAE06B39 SLP943 P0001 60001 T01560117 56030 $

More Conditions Fewer Conditions

Pressure 29.37 in
Visibility 10.0 miles
Clouds Few 4000 ft
Mostly Cloudy 7500 ft
Overcast 9000 ft
Dew Point 51 °F
Humidity 78%
Rainfall 0.09 in
Snow Depth Not available.
UV 1 out of 12
Pollen .40 out of 12
PM2.5 Good
Flu Activity Sporadic
METAR KNUW 252056Z 25004KT 10SM -RA FEW040 BKN075 OVC090 16/12 A2935 RMK AO2 RAE06B39 SLP943 P0001 60001 T01560117 56030 $

More Conditions Fewer Conditions

10-Day Weather Forecast

Almanac

Astronomy

Oct. 25, 2014 Rise Set
Actual Time 7:44 AM PDT 6:01 PM PDT
Civil Twilight 7:12 AM PDT 6:33 PM PDT
Nautical Twilight 6:35 AM PDT 7:10 PM PDT
Astronomical Twilight 5:59 AM PDT 7:46 PM PDT
Moon 9:35 AM PDT 7:21 PM PDT
Length of Visible Light 11h 21m
Length of Day
10h 16m
Tomorrow will be 3m 18s shorter.
Waxing Crescent, 4% of the Moon is Illuminated
Today
Waxing Crescent
Oct 30
First Quarter
Nov 6
Full
Nov 14
Last Quarter
Nov 22
New

Today's Extremes

State Highs State Lows

Community

WunderPhotos

Upload Photos

1,764,997 photos uploaded!

Nearby

Air Quality

  Air Quality AQ Index Pollutant
Yesterday Good
OZONE
Yesterday Good
PM2.5
Current Good
PM2.5
Saturday Good
OZONE
Saturday Good
PM2.5
Sunday Good
OZONE
Sunday Good
PM2.5
Monday Good
OZONE
Monday Good
PM2.5
Tuesday Good
OZONE
Tuesday Good
PM2.5

Snow Depth

Station Depth Elevation
Elbow Lake 0 in 3200 ft
Mf Nooksack 2 in 4980 ft
Wells Creek 0 in 4200 ft
Dungeness 0 in 4100 ft
Beaver Pass 0 in 3620 ft

Earthquake Activity

City Distance Mag. Time & Date
Birch Bay, Washington 30 miles 2.8 3:02 AM PDT
2014-10-24
Minimum magnitude displayed is 2.5.

Coastal Water Temperatures

Place Temperature
Port Townsend, WA 52.0 °F
Friday Harbor, WA 51.1 °F
Port Angeles, WA 57.0 °F

Nearby Weather Stations